Time;durP1;ratioP1;P1;durP2;ratioP2;P2;SDS_P1;SDS_P2;PMS_P1;PMS_P2;Temp;Humidity;BMP_temperature;BMP_pressure;BME280_temperature;BME280_humidity;BME280_pressure;Samples;Min_cycle;Max_cycle;Signal;HPM_P1;HPM_P2
2023/05/19 00:02:32;;;;;;;10.78;7.85;;;;;;;20.88;40.00;100171.55;1786951;80;21226;-80
2023/05/19 00:05:39;;;;;;;11.97;8.70;;;;;;;20.85;40.02;100179.02;1787127;80;21211;-80
2023/05/19 00:08:45;;;;;;;15.23;9.53;;;;;;;20.96;39.81;100180.89;1786698;80;21784;-81
2023/05/19 00:11:51;;;;;;;13.25;8.03;;;;;;;20.90;39.88;100174.94;1786886;80;21135;-80
2023/05/19 00:14:57;;;;;;;12.93;9.28;;;;;;;20.95;39.76;100170.87;1785771;80;21171;-80
2023/05/19 00:18:01;;;;;;;12.07;8.30;;;;;;;20.91;39.80;100170.52;1786859;80;21731;-79
2023/05/19 00:21:08;;;;;;;13.75;8.58;;;;;;;20.90;39.78;100165.21;1787037;80;21171;-79
2023/05/19 00:24:13;;;;;;;16.23;9.73;;;;;;;20.82;39.95;100166.44;1786324;80;21191;-79
2023/05/19 00:27:18;;;;;;;16.23;9.18;;;;;;;20.82;40.11;100175.33;1787053;80;21160;-82
2023/05/19 00:30:24;;;;;;;16.20;9.25;;;;;;;20.80;40.21;100176.13;1785487;80;21155;-79
2023/05/19 00:33:32;;;;;;;13.85;7.78;;;;;;;20.62;40.47;100176.59;1786799;80;21655;-79
2023/05/19 00:36:38;;;;;;;18.17;9.08;;;;;;;20.70;40.27;100176.73;1788335;80;21759;-78
2023/05/19 00:39:45;;;;;;;13.03;8.10;;;;;;;20.76;40.08;100183.27;1791307;80;21221;-80
2023/05/19 00:42:51;;;;;;;15.90;7.78;;;;;;;20.61;40.29;100176.30;1792736;80;21147;-81
2023/05/19 00:45:57;;;;;;;15.03;8.90;;;;;;;20.61;40.35;100185.19;1792708;80;21148;-80
2023/05/19 00:49:03;;;;;;;13.40;9.55;;;;;;;20.57;40.38;100187.60;1792258;80;21796;-81
2023/05/19 00:52:09;;;;;;;19.62;9.55;;;;;;;20.55;40.33;100182.81;1792689;80;21167;-79
2023/05/19 00:55:16;;;;;;;16.40;9.60;;;;;;;20.54;40.31;100187.24;1791501;80;21755;-79
2023/05/19 00:58:24;;;;;;;15.58;9.18;;;;;;;20.48;40.46;100186.84;1791370;80;21178;-79
2023/05/19 01:01:26;;;;;;;16.12;9.00;;;;;;;20.43;40.49;100186.99;1793075;80;21701;-81
2023/05/19 01:04:20;;;;;;;14.03;9.78;;;;;;;20.44;40.50;100186.44;1792739;80;21182;-80
2023/05/19 01:07:06;;;;;;;16.87;9.25;;;;;;;20.34;40.70;100184.83;1793013;80;21151;-80
2023/05/19 01:09:59;;;;;;;12.43;9.23;;;;;;;20.32;40.74;100182.83;1791735;80;21233;-79
2023/05/19 01:12:45;;;;;;;17.60;9.23;;;;;;;20.32;40.79;100182.83;1792988;80;21198;-80
2023/05/19 01:15:40;;;;;;;15.08;8.95;;;;;;;20.34;40.82;100184.83;1792018;80;21173;-81
2023/05/19 01:19:00;;;;;;;15.85;9.70;;;;;;;20.32;40.95;100182.83;1791535;80;21143;-82
2023/05/19 01:22:30;;;;;;;15.65;8.95;;;;;;;20.23;41.19;100182.38;1792985;80;21186;-82
2023/05/19 01:25:57;;;;;;;18.65;9.05;;;;;;;20.24;41.18;100181.83;1789578;80;21207;-80
2023/05/19 01:29:12;;;;;;;18.45;10.08;;;;;;;20.29;41.07;100184.17;1792864;80;21194;-78
2023/05/19 01:32:19;;;;;;;19.30;10.60;;;;;;;20.27;41.17;100182.72;1792820;80;21159;-79
2023/05/19 01:35:25;;;;;;;17.98;10.15;;;;;;;20.31;41.01;100191.70;1791429;80;21186;-78
2023/05/19 01:38:31;;;;;;;24.32;11.55;;;;;;;20.35;41.01;100194.84;1786973;79;21195;-81
2023/05/19 01:41:38;;;;;;;21.02;10.45;;;;;;;20.32;41.10;100204.50;1787064;80;21726;-79
2023/05/19 01:44:43;;;;;;;23.10;11.33;;;;;;;20.34;41.10;100197.33;1786037;80;21202;-79
2023/05/19 01:47:52;;;;;;;20.80;10.63;;;;;;;20.36;41.07;100196.53;1786667;80;21254;-81
2023/05/19 01:50:58;;;;;;;23.62;10.85;;;;;;;20.40;41.05;100195.80;1786987;80;21735;-80
2023/05/19 01:54:06;;;;;;;19.15;9.90;;;;;;;20.44;41.11;100198.95;1787076;80;21179;-81
2023/05/19 01:57:32;;;;;;;26.07;10.65;;;;;;;20.40;41.16;100204.13;1786987;80;21149;-81
2023/05/19 02:01:18;;;;;;;18.30;11.25;;;;;;;20.38;41.31;100204.94;1786926;80;21207;-80
2023/05/19 02:04:49;;;;;;;17.37;10.90;;;;;;;20.43;41.35;100200.04;1785817;80;21155;-80
2023/05/19 02:08:07;;;;;;;19.27;10.78;;;;;;;20.59;41.17;100202.08;1786990;80;21156;-80
2023/05/19 02:11:22;;;;;;;24.75;10.70;;;;;;;20.71;41.02;100202.07;1787022;80;21744;-81
2023/05/19 02:14:52;;;;;;;20.80;11.65;;;;;;;20.67;41.24;100203.64;1786163;80;21730;-79
2023/05/19 02:17:58;;;;;;;23.52;11.95;;;;;;;20.63;41.34;100203.28;1787048;80;21203;-80
2023/05/19 02:21:05;;;;;;;19.37;10.75;;;;;;;20.73;41.37;100207.38;1786994;80;21150;-80
2023/05/19 02:24:10;;;;;;;21.35;10.80;;;;;;;20.94;41.27;100210.89;1786400;80;21191;-81
2023/05/19 02:27:17;;;;;;;24.95;11.15;;;;;;;21.12;40.97;100211.22;1785905;80;21156;-78
2023/05/19 02:30:22;;;;;;;20.90;11.45;;;;;;;21.24;40.80;100216.20;1785512;80;21182;-78
2023/05/19 02:33:29;;;;;;;22.58;11.00;;;;;;;21.40;40.55;100219.59;1786949;80;21198;-80
2023/05/19 02:36:39;;;;;;;16.62;9.85;;;;;;;21.68;40.20;100219.25;1786166;80;21159;-79
2023/05/19 02:39:42;;;;;;;18.50;9.68;;;;;;;21.89;39.88;100219.91;1785764;80;21163;-79
2023/05/19 02:42:48;;;;;;;15.08;9.43;;;;;;;22.10;39.50;100220.23;1787038;80;21791;-81
2023/05/19 02:45:55;;;;;;;24.23;10.38;;;;;;;22.39;39.11;100220.98;1786715;80;21159;-79
2023/05/19 02:49:02;;;;;;;12.78;8.68;;;;;;;22.63;38.58;100221.59;1786851;80;21691;-81
2023/05/19 02:52:02;;;;;;;20.20;9.68;;;;;;;22.94;38.08;100216.74;1786991;80;21708;-79
2023/05/19 02:55:07;;;;;;;16.20;9.65;;;;;;;23.27;37.68;100214.05;1785641;80;21190;-80
2023/05/19 02:58:13;;;;;;;18.87;8.98;;;;;;;23.47;37.36;100219.84;1786975;80;21186;-81
2023/05/19 03:01:20;;;;;;;15.13;8.85;;;;;;;23.75;36.92;100225.72;1787172;80;21151;-80
2023/05/19 03:04:26;;;;;;;20.15;8.90;;;;;;;24.00;36.38;100236.30;1786648;80;21735;-81
2023/05/19 03:07:34;;;;;;;17.25;9.23;;;;;;;24.05;36.40;100240.52;1785864;80;21143;-81
2023/05/19 03:10:39;;;;;;;16.70;9.75;;;;;;;24.02;36.47;100238.25;1787012;80;21743;-81
2023/05/19 03:13:45;;;;;;;17.27;9.88;;;;;;;24.05;36.51;100241.92;1786608;80;21218;-82
2023/05/19 03:16:50;;;;;;;20.00;9.73;;;;;;;24.21;36.37;100236.72;1786447;80;21180;-82
2023/05/19 03:19:56;;;;;;;16.95;8.93;;;;;;;24.43;35.89;100238.59;1786518;80;21167;-81
2023/05/19 03:23:04;;;;;;;14.90;8.58;;;;;;;24.52;35.46;100238.94;1786958;80;21198;-80
2023/05/19 03:26:10;;;;;;;19.95;9.90;;;;;;;24.73;35.08;100241.55;1786990;80;21155;-79
2023/05/19 03:29:15;;;;;;;15.58;9.23;;;;;;;24.89;35.04;100237.42;1786355;80;21155;-80
2023/05/19 03:32:20;;;;;;;17.17;9.65;;;;;;;25.08;34.69;100245.69;1787002;80;22031;-79
2023/05/19 03:35:25;;;;;;;17.30;8.68;;;;;;;25.18;34.47;100243.48;1786013;80;21227;-81
2023/05/19 03:38:31;;;;;;;16.82;9.83;;;;;;;25.19;34.44;100243.19;1786718;80;21735;-80
2023/05/19 03:41:37;;;;;;;17.32;7.92;;;;;;;25.36;34.25;100246.30;1787018;80;21139;-80
2023/05/19 03:44:43;;;;;;;15.95;9.35;;;;;;;25.40;34.11;100243.23;1786055;80;21167;-81
2023/05/19 03:47:49;;;;;;;14.10;8.93;;;;;;;25.33;34.43;100242.12;1786221;80;21207;-81
2023/05/19 03:51:04;;;;;;;18.98;8.70;;;;;;;25.14;34.49;100245.14;1763152;80;21171;-80
2023/05/19 03:54:10;;;;;;;14.05;9.45;;;;;;;25.09;34.68;100243.72;1786544;80;21190;-81
2023/05/19 03:57:16;;;;;;;19.98;9.33;;;;;;;25.22;34.42;100256.65;1786478;80;21720;-80
2023/05/19 04:00:22;;;;;;;16.97;9.75;;;;;;;25.12;34.32;100251.55;1785446;80;21195;-81
2023/05/19 04:03:28;;;;;;;15.72;8.98;;;;;;;25.05;34.61;100255.14;1786679;80;21191;-81
2023/05/19 04:06:35;;;;;;;14.60;9.30;;;;;;;25.10;34.43;100256.59;1786252;80;21191;-81
2023/05/19 04:09:42;;;;;;;23.57;10.13;;;;;;;25.08;34.12;100255.47;1785567;80;21207;-80
2023/05/19 04:12:47;;;;;;;22.77;10.23;;;;;;;25.09;34.19;100255.75;1786511;80;21668;-81
2023/05/19 04:15:52;;;;;;;15.78;8.70;;;;;;;25.08;33.88;100259.67;1786458;80;21163;-80
2023/05/19 04:18:57;;;;;;;17.92;9.20;;;;;;;25.04;34.12;100257.09;1785640;80;21171;-80
2023/05/19 04:22:03;;;;;;;19.57;8.83;;;;;;;25.10;33.79;100251.83;1786058;80;21816;-82
2023/05/19 04:25:10;;;;;;;18.23;9.28;;;;;;;25.16;33.87;100251.28;1784971;80;21238;-81
2023/05/19 04:28:17;;;;;;;16.10;8.98;;;;;;;25.20;33.58;100253.27;1785429;80;21198;-80
2023/05/19 04:31:23;;;;;;;17.50;9.20;;;;;;;25.31;33.46;100256.09;1786270;80;21163;-82
2023/05/19 04:34:29;;;;;;;15.43;8.05;;;;;;;25.46;33.58;100258.95;1785528;80;21720;-81
2023/05/19 04:37:36;;;;;;;17.75;8.85;;;;;;;25.55;32.95;100261.50;1787140;80;21175;-81
2023/05/19 04:40:43;;;;;;;13.70;8.43;;;;;;;25.68;32.86;100253.10;1788485;80;21159;-81
2023/05/19 04:43:50;;;;;;;17.40;7.95;;;;;;;25.87;33.03;100261.28;1792394;80;21183;-80
2023/05/19 04:46:58;;;;;;;12.43;8.43;;;;;;;26.09;32.59;100259.61;1791418;80;21183;-81
2023/05/19 04:50:04;;;;;;;16.97;9.00;;;;;;;26.15;31.81;100258.48;1791380;80;21187;-81
2023/05/19 04:53:10;;;;;;;15.05;8.03;;;;;;;26.22;31.87;100256.25;1792533;80;21199;-81
2023/05/19 04:56:16;;;;;;;19.15;7.22;;;;;;;26.31;31.77;100259.90;1792698;80;21149;-81
2023/05/19 04:59:22;;;;;;;24.87;7.30;;;;;;;26.43;31.56;100263.26;1790182;80;21715;-81
2023/05/19 05:02:30;;;;;;;12.43;7.30;;;;;;;26.31;31.65;100265.50;1790818;80;21179;-81
2023/05/19 05:05:36;;;;;;;16.00;7.33;;;;;;;26.26;31.86;100260.74;1790270;80;21145;-81
2023/05/19 05:08:43;;;;;;;21.33;7.83;;;;;;;26.40;31.93;100264.65;1783579;80;21171;-80
2023/05/19 05:11:50;;;;;;;11.25;6.78;;;;;;;26.36;32.05;100262.12;1791118;78;21135;-82
2023/05/19 05:14:56;;;;;;;10.15;6.45;;;;;;;26.60;31.30;100266.61;1792752;79;21131;-79
2023/05/19 05:18:04;;;;;;;14.63;6.83;;;;;;;27.00;31.10;100266.20;1791564;79;21237;-80
2023/05/19 05:21:10;;;;;;;18.05;6.28;;;;;;;27.19;30.41;100257.44;1788053;78;21136;-81
2023/05/19 05:24:16;;;;;;;9.70;5.25;;;;;;;27.43;30.30;100259.03;1792304;78;21182;-81
2023/05/19 05:27:23;;;;;;;10.70;5.62;;;;;;;27.57;29.52;100262.04;1789482;78;21140;-81
2023/05/19 05:30:28;;;;;;;19.75;5.87;;;;;;;27.77;29.77;100259.69;1801445;78;21131;-80
2023/05/19 05:33:34;;;;;;;15.23;5.87;;;;;;;27.89;30.03;100268.57;1794896;78;21707;-81
2023/05/19 05:36:42;;;;;;;13.48;5.47;;;;;;;28.09;29.93;100266.73;1793083;78;21177;-80
2023/05/19 05:39:49;;;;;;;14.63;5.92;;;;;;;28.27;29.64;100271.06;1796740;78;21189;-81
2023/05/19 05:42:55;;;;;;;13.25;5.33;;;;;;;28.40;29.67;100271.56;1806370;78;21727;-80
2023/05/19 05:46:03;;;;;;;9.18;5.70;;;;;;;28.58;29.28;100279.26;1790625;79;21187;-81
2023/05/19 05:49:11;;;;;;;14.75;5.35;;;;;;;28.56;28.39;100273.11;1793475;79;21171;-80
2023/05/19 05:52:19;;;;;;;12.18;5.20;;;;;;;28.56;28.17;100284.36;1786154;79;21177;-81
2023/05/19 05:55:25;;;;;;;7.05;4.72;;;;;;;28.71;28.43;100281.37;1797280;79;21477;-81
2023/05/19 05:58:33;;;;;;;6.67;4.28;;;;;;;28.75;27.83;100288.09;1786361;79;21170;-82
2023/05/19 06:01:40;;;;;;;7.45;4.37;;;;;;;28.52;28.46;100291.70;1797651;78;21743;-81
2023/05/19 06:04:47;;;;;;;9.63;4.08;;;;;;;28.48;27.90;100285.83;1761983;79;21143;-82
2023/05/19 06:07:54;;;;;;;7.30;3.42;;;;;;;28.51;28.43;100290.88;1780191;79;21732;-82
2023/05/19 06:10:59;;;;;;;11.15;4.40;;;;;;;28.58;28.21;100284.05;1788096;79;21154;-82
2023/05/19 06:14:06;;;;;;;7.85;4.62;;;;;;;28.95;27.60;100284.81;1789126;79;21206;-81
2023/05/19 06:17:29;;;;;;;5.42;3.60;;;;;;;28.95;27.63;100279.18;1790687;79;21166;-81
2023/05/19 06:20:35;;;;;;;8.43;3.30;;;;;;;29.08;27.32;100284.09;1787097;79;21183;-81
2023/05/19 06:23:41;;;;;;;7.33;3.40;;;;;;;29.03;27.42;100277.13;1796257;79;21179;-80
2023/05/19 06:26:48;;;;;;;7.87;2.72;;;;;;;29.27;27.35;100276.52;1781332;79;21144;-81
2023/05/19 06:29:54;;;;;;;6.08;3.20;;;;;;;29.33;26.00;100279.27;1784262;79;21175;-80
2023/05/19 06:33:02;;;;;;;7.37;2.72;;;;;;;29.36;26.97;100274.42;1792204;79;21722;-81
2023/05/19 06:36:08;;;;;;;7.58;2.40;;;;;;;29.62;26.37;100277.77;1797383;79;21202;-81
2023/05/19 06:39:15;;;;;;;4.05;2.77;;;;;;;29.75;26.21;100277.02;1807775;77;21191;-81
2023/05/19 06:42:21;;;;;;;4.30;2.98;;;;;;;29.87;26.46;100283.58;1790762;79;21712;-80
2023/05/19 06:45:40;;;;;;;5.92;2.92;;;;;;;30.00;26.69;100287.05;1734148;80;21183;-79
2023/05/19 06:48:49;;;;;;;10.03;3.02;;;;;;;30.11;26.21;100283.48;1766948;78;21680;-82
2023/05/19 06:51:50;;;;;;;5.83;2.80;;;;;;;30.18;26.17;100286.22;1793914;78;21159;-79
2023/05/19 06:54:43;;;;;;;6.92;2.40;;;;;;;30.21;25.93;100291.25;1795496;79;21792;-83
2023/05/19 06:57:50;;;;;;;6.67;2.80;;;;;;;30.11;25.38;100284.89;1800571;79;21175;-82
2023/05/19 07:00:56;;;;;;;2.67;2.20;;;;;;;30.25;25.47;100295.14;1797492;78;21171;-80
2023/05/19 07:04:04;;;;;;;7.95;3.27;;;;;;;30.29;24.81;100287.70;1772986;79;21179;-79
2023/05/19 07:07:09;;;;;;;3.55;2.27;;;;;;;30.45;24.99;100284.06;1756017;81;21763;-82
2023/05/19 07:10:15;;;;;;;3.80;2.40;;;;;;;30.57;24.99;100299.08;1757301;80;21187;-79
2023/05/19 07:13:20;;;;;;;5.00;2.75;;;;;;;30.55;23.33;100297.98;1765178;80;21822;-79
2023/05/19 07:16:26;;;;;;;4.03;2.33;;;;;;;30.55;24.44;100287.27;1775156;79;21192;-82
2023/05/19 07:19:31;;;;;;;11.57;2.65;;;;;;;30.69;24.53;100298.59;1775634;79;21235;-82
2023/05/19 07:22:40;;;;;;;5.72;2.67;;;;;;;30.80;24.97;100292.46;1767043;80;21163;-80
2023/05/19 07:25:46;;;;;;;11.22;2.55;;;;;;;30.96;25.56;100290.73;1764765;81;21131;-82
2023/05/19 07:28:52;;;;;;;3.40;2.30;;;;;;;31.02;24.90;100302.22;1782916;79;21165;-82
2023/05/19 07:31:57;;;;;;;4.12;2.10;;;;;;;30.97;23.50;100298.09;1790868;79;21160;-83
2023/05/19 07:35:03;;;;;;;7.42;2.35;;;;;;;30.99;23.38;100300.84;1779251;79;21162;-79
2023/05/19 07:38:09;;;;;;;9.73;2.35;;;;;;;31.15;24.15;100293.47;1781875;79;21150;-81
2023/05/19 07:41:14;;;;;;;7.05;2.37;;;;;;;31.28;23.05;100296.89;1784660;80;22084;-82
2023/05/19 07:44:20;;;;;;;8.93;1.95;;;;;;;31.03;22.97;100295.41;1805467;78;21149;-83
2023/05/19 07:47:26;;;;;;;10.68;2.58;;;;;;;30.77;24.12;100288.87;1808901;78;21757;-80
2023/05/19 07:50:32;;;;;;;6.10;1.82;;;;;;;30.59;23.81;100284.09;1802473;78;21148;-82
2023/05/19 07:53:38;;;;;;;8.45;1.70;;;;;;;30.78;23.27;100297.59;1803536;78;21199;-79
2023/05/19 07:56:44;;;;;;;3.62;2.27;;;;;;;30.71;23.12;100297.73;1813791;78;21140;-83
2023/05/19 07:59:50;;;;;;;7.50;2.55;;;;;;;30.77;22.45;100286.59;1817605;78;21161;-82
2023/05/19 08:02:58;;;;;;;5.37;2.30;;;;;;;30.84;22.75;100287.61;1798081;78;21649;-80
2023/05/19 08:06:04;;;;;;;12.20;2.05;;;;;;;31.07;23.40;100290.81;1801945;78;21156;-82
2023/05/19 08:09:10;;;;;;;5.80;2.40;;;;;;;31.27;23.13;100289.00;1815414;78;21207;-80
2023/05/19 08:12:16;;;;;;;9.35;2.47;;;;;;;31.43;23.75;100285.84;1806675;78;21848;-82
2023/05/19 08:15:21;;;;;;;5.17;2.10;;;;;;;31.41;22.62;100286.16;1797016;78;21144;-80
2023/05/19 08:18:20;;;;;;;7.42;1.98;;;;;;;31.34;23.26;100300.48;1785347;78;21242;-79
2023/05/19 08:21:13;;;;;;;3.27;1.85;;;;;;;31.27;22.17;100290.41;1805799;78;21167;-82
2023/05/19 08:24:00;;;;;;;5.58;2.17;;;;;;;31.38;22.56;100290.19;1810978;78;21171;-80
2023/05/19 08:27:04;;;;;;;;;;;;;;;31.41;22.92;100290.98;1801321;78;21163;-81
2023/05/19 08:30:09;;;;;;;2.47;1.75;;;;;;;31.38;22.92;100285.95;1800222;78;20229;-80
2023/05/19 08:33:16;;;;;;;2.75;2.00;;;;;;;31.28;22.51;100304.80;1765164;80;21184;-81
2023/05/19 08:36:21;;;;;;;3.70;1.90;;;;;;;31.05;22.29;100293.09;1800216;78;21167;-80
2023/05/19 08:39:27;;;;;;;5.78;1.87;;;;;;;30.90;22.22;100292.84;1792613;78;21195;-80
2023/05/19 08:42:35;;;;;;;10.53;2.40;;;;;;;30.82;22.80;100299.77;1794581;78;21187;-80
2023/05/19 08:45:40;;;;;;;6.17;1.80;;;;;;;30.78;22.90;100299.01;1785025;78;21231;-81
2023/05/19 08:48:46;;;;;;;5.58;1.85;;;;;;;30.60;21.67;100292.83;1786986;79;21180;-81
2023/05/19 08:52:14;;;;;;;5.17;1.82;;;;;;;30.45;23.13;100291.70;1789716;79;21143;-81
2023/05/19 08:55:40;;;;;;;2.87;1.60;;;;;;;30.42;23.19;100283.27;1797243;79;21171;-81
2023/05/19 08:58:46;;;;;;;4.83;1.90;;;;;;;30.34;23.05;100287.36;1744927;80;21645;-82
2023/05/19 09:01:52;;;;;;;6.45;2.10;;;;;;;30.37;23.02;100282.52;1771836;79;21144;-81
2023/05/19 09:04:58;;;;;;;3.95;1.77;;;;;;;30.38;23.22;100281.37;1775247;79;21167;-82
2023/05/19 09:08:05;;;;;;;8.53;1.90;;;;;;;30.37;23.15;100283.94;1787213;79;21136;-80
2023/05/19 09:11:11;;;;;;;12.05;2.00;;;;;;;30.33;21.90;100281.45;1767547;80;21728;-81
2023/05/19 09:14:17;;;;;;;7.25;2.10;;;;;;;30.34;22.14;100281.72;1791538;79;21201;-81
2023/05/19 09:17:23;;;;;;;5.03;2.35;;;;;;;30.44;21.87;100273.93;1780879;79;21724;-81
2023/05/19 09:20:29;;;;;;;5.72;2.00;;;;;;;30.40;21.62;100274.86;1786264;79;21167;-80
2023/05/19 09:23:36;;;;;;;3.85;2.15;;;;;;;30.60;22.16;100273.64;1793434;79;21199;-81
2023/05/19 09:26:49;;;;;;;3.40;1.92;;;;;;;30.51;21.66;100276.34;1780652;79;21649;-81
2023/05/19 09:29:57;;;;;;;4.50;1.80;;;;;;;30.38;20.92;100275.73;1781130;79;21164;-81
2023/05/19 09:33:07;;;;;;;3.35;2.08;;;;;;;30.38;21.33;100266.69;1783863;79;21187;-78
2023/05/19 09:36:11;;;;;;;7.40;1.98;;;;;;;30.55;22.01;100266.11;1780780;79;21135;-82
2023/05/19 09:39:27;;;;;;;8.00;2.15;;;;;;;30.74;21.73;100260.42;1783033;79;21158;-78
2023/05/19 09:42:32;;;;;;;5.65;2.20;;;;;;;31.08;21.45;100271.30;1780211;79;21164;-78
2023/05/19 09:45:38;;;;;;;7.80;2.10;;;;;;;31.41;21.21;100254.24;1783022;80;21925;-79
2023/05/19 09:48:44;;;;;;;5.08;2.00;;;;;;;31.77;21.88;100256.52;1789837;79;21180;-78
2023/05/19 09:51:50;;;;;;;4.78;2.40;;;;;;;32.06;20.47;100251.03;1770375;80;21755;-78
2023/05/19 09:54:56;;;;;;;4.20;2.15;;;;;;;31.96;19.71;100248.46;1765250;79;21193;-83
2023/05/19 09:58:03;;;;;;;11.68;2.20;;;;;;;31.72;20.54;100247.32;1783902;79;21178;-79
2023/05/19 10:01:10;;;;;;;7.62;2.60;;;;;;;31.87;21.30;100251.80;1787790;79;21791;-84
2023/05/19 10:04:16;;;;;;;7.97;2.52;;;;;;;32.08;20.21;100253.53;1786917;79;21159;-79
2023/05/19 10:07:23;;;;;;;6.03;2.65;;;;;;;32.06;19.93;100241.13;1775482;79;21768;-78
2023/05/19 10:10:30;;;;;;;4.75;2.40;;;;;;;31.97;19.49;100261.44;1775386;79;21222;-83
2023/05/19 10:13:37;;;;;;;4.40;3.12;;;;;;;31.84;20.04;100242.53;1785372;79;21298;-83
2023/05/19 10:16:42;;;;;;;3.15;2.33;;;;;;;32.07;19.96;100230.06;1765334;79;21199;-83
2023/05/19 10:19:49;;;;;;;7.28;3.08;;;;;;;32.07;19.96;100230.06;1775444;79;21316;-82
2023/05/19 10:22:55;;;;;;;11.38;3.20;;;;;;;32.01;19.94;100233.61;1784145;79;21239;-79
2023/05/19 10:26:05;;;;;;;8.10;3.42;;;;;;;31.81;19.85;100237.75;1796966;79;21754;-78
2023/05/19 10:29:11;;;;;;;11.25;4.60;;;;;;;31.57;20.30;100230.11;1773771;79;21191;-79
2023/05/19 10:32:21;;;;;;;4.95;3.45;;;;;;;31.41;20.18;100226.81;1775996;79;21159;-78
2023/05/19 10:36:10;;;;;;;6.45;3.45;;;;;;;31.29;20.06;100224.55;1772363;79;21156;-83
2023/05/19 10:39:34;;;;;;;7.70;4.10;;;;;;;31.13;20.10;100236.46;1786838;79;21189;-77
2023/05/19 10:42:53;;;;;;;8.18;4.50;;;;;;;30.98;20.14;100227.74;1760941;79;21195;-79
2023/05/19 10:46:00;;;;;;;7.12;5.03;;;;;;;30.94;20.48;100234.59;1776717;79;22157;-79
2023/05/19 10:49:06;;;;;;;12.25;6.20;;;;;;;30.90;20.47;100222.82;1766768;81;21230;-78
2023/05/19 10:52:29;;;;;;;15.95;6.58;;;;;;;31.03;20.53;100221.98;1777145;79;21155;-82
2023/05/19 10:55:51;;;;;;;10.98;6.58;;;;;;;31.37;20.96;100210.81;1756327;79;21155;-78
2023/05/19 10:58:57;;;;;;;12.28;7.12;;;;;;;31.67;19.08;100211.52;1771817;79;21592;-82
2023/05/19 11:02:02;;;;;;;14.13;7.40;;;;;;;32.01;19.62;100214.39;1746157;81;21146;-83
2023/05/19 11:05:22;;;;;;;15.15;7.17;;;;;;;31.99;19.79;100222.34;1769696;79;21369;-78
2023/05/19 11:08:40;;;;;;;11.80;6.65;;;;;;;31.82;19.64;100221.65;1775365;79;21164;-83
2023/05/19 11:11:55;;;;;;;11.95;7.08;;;;;;;31.72;18.84;100227.53;1739454;81;21899;-78
2023/05/19 11:15:05;;;;;;;12.53;6.83;;;;;;;31.65;18.97;100225.12;1776083;80;21235;-77
2023/05/19 11:18:14;;;;;;;11.08;7.25;;;;;;;31.74;18.83;100228.03;1735317;81;21202;-77
2023/05/19 11:21:19;;;;;;;14.65;8.03;;;;;;;31.91;19.05;100215.48;1766964;80;21176;-78
2023/05/19 11:24:53;;;;;;;14.53;8.15;;;;;;;32.13;19.84;100237.25;1760840;80;21649;-78
2023/05/19 11:27:57;;;;;;;11.35;6.80;;;;;;;32.24;19.46;100223.70;1766433;80;21517;-79
2023/05/19 11:31:06;;;;;;;15.55;8.13;;;;;;;32.19;19.04;100215.34;1782858;80;21537;-82
2023/05/19 11:34:12;;;;;;;;;;;;;;;31.89;19.65;100228.27;1764323;80;21187;-80
2023/05/19 11:37:17;;;;;;;15.78;8.00;;;;;;;31.76;20.53;100218.63;1751399;80;20219;-78
2023/05/19 11:40:22;;;;;;;14.68;7.87;;;;;;;31.52;20.59;100221.20;1761697;80;21231;-79
2023/05/19 11:43:29;;;;;;;14.95;7.80;;;;;;;31.36;21.25;100221.28;1752823;80;21183;-83
2023/05/19 11:46:34;;;;;;;12.75;8.05;;;;;;;31.19;21.09;100226.13;1758444;80;21156;-82
2023/05/19 11:49:39;;;;;;;13.30;6.85;;;;;;;31.19;21.86;100223.31;1765899;80;21168;-83
2023/05/19 11:52:48;;;;;;;12.55;7.30;;;;;;;31.34;21.28;100219.95;1777765;79;21578;-79
2023/05/19 11:55:54;;;;;;;16.27;7.65;;;;;;;31.49;21.33;100216.18;1739843;81;21142;-79
2023/05/19 11:59:01;;;;;;;17.87;7.70;;;;;;;31.64;20.74;100216.97;1790486;80;21241;-81
2023/05/19 12:02:29;;;;;;;14.98;8.48;;;;;;;31.73;21.11;100215.05;1804798;79;21168;-79
2023/05/19 12:05:34;;;;;;;14.78;7.22;;;;;;;31.87;20.18;100229.17;1788428;79;21188;-83
2023/05/19 12:08:43;;;;;;;10.82;7.10;;;;;;;31.92;19.66;100221.97;1792756;78;21238;-84
2023/05/19 12:11:48;;;;;;;11.65;7.55;;;;;;;31.91;19.69;100224.55;1790658;79;21190;-82
2023/05/19 12:14:57;;;;;;;13.88;7.25;;;;;;;31.92;19.11;100224.80;1785637;80;21203;-79
2023/05/19 12:18:06;;;;;;;20.40;8.25;;;;;;;31.53;19.38;100222.04;1793776;79;21159;-82
2023/05/19 12:21:12;;;;;;;17.32;7.58;;;;;;;31.48;19.58;100223.58;1789530;79;21727;-79
2023/05/19 12:24:18;;;;;;;13.70;7.53;;;;;;;31.51;20.18;100229.41;1785862;80;21173;-79
2023/05/19 12:27:26;;;;;;;12.93;7.78;;;;;;;31.75;19.74;100218.38;1755451;81;21159;-79
2023/05/19 12:30:35;;;;;;;11.97;7.25;;;;;;;31.69;19.26;100207.78;1754852;81;21147;-83
2023/05/19 12:33:41;;;;;;;12.88;7.85;;;;;;;31.76;18.97;100208.74;1754023;81;21611;-83
2023/05/19 12:36:47;;;;;;;14.33;8.48;;;;;;;31.87;19.21;100207.38;1795692;79;21196;-79
2023/05/19 12:39:52;;;;;;;13.75;7.75;;;;;;;31.91;19.03;100204.75;1785453;79;21184;-79
2023/05/19 12:43:00;;;;;;;15.83;7.92;;;;;;;31.84;19.04;100214.25;1785732;79;21145;-83
2023/05/19 12:46:06;;;;;;;12.85;7.25;;;;;;;31.88;18.94;100210.46;1804822;79;21181;-82
2023/05/19 12:49:12;;;;;;;11.50;7.17;;;;;;;32.05;19.45;100210.59;1794173;79;21183;-82
2023/05/19 12:52:22;;;;;;;14.15;7.58;;;;;;;31.65;19.51;100202.51;1796565;79;21720;-81
2023/05/19 12:55:27;;;;;;;13.83;7.65;;;;;;;31.41;19.19;100201.38;1765284;78;21688;-77
2023/05/19 12:58:33;;;;;;;14.18;8.15;;;;;;;31.58;18.98;100214.84;1761017;80;21222;-77
2023/05/19 13:01:40;;;;;;;14.23;7.80;;;;;;;31.30;19.50;100210.68;1798454;78;22083;-81
2023/05/19 13:04:47;;;;;;;11.70;7.67;;;;;;;31.37;19.32;100205.16;1746767;80;21211;-82
2023/05/19 13:08:04;;;;;;;16.12;7.90;;;;;;;31.23;19.79;100203.16;1788131;80;21151;-77
2023/05/19 13:11:09;;;;;;;11.73;7.35;;;;;;;31.10;20.45;100211.66;1788492;80;21158;-77
2023/05/19 13:14:14;;;;;;;16.20;7.37;;;;;;;31.42;20.29;100206.45;1788532;80;21709;-82
2023/05/19 13:17:20;;;;;;;15.30;7.58;;;;;;;31.57;20.75;100211.73;1789036;80;21739;-83
2023/05/19 13:20:24;;;;;;;12.58;6.95;;;;;;;31.55;19.92;100210.66;1788966;80;21191;-82
2023/05/19 13:23:25;;;;;;;11.55;7.55;;;;;;;31.66;18.91;100204.75;1788831;80;21187;-82
2023/05/19 13:26:31;;;;;;;18.87;7.85;;;;;;;31.68;19.41;100203.30;1789411;80;21176;-81
2023/05/19 13:29:37;;;;;;;13.68;7.28;;;;;;;31.63;18.96;100209.07;1789681;80;21763;-79
2023/05/19 13:32:43;;;;;;;11.63;6.53;;;;;;;31.69;19.86;100214.85;1789830;80;21144;-82
2023/05/19 13:35:49;;;;;;;13.05;7.83;;;;;;;31.49;19.47;100221.83;1789479;80;21758;-82
2023/05/19 13:38:55;;;;;;;9.20;6.28;;;;;;;31.37;20.02;100217.88;1789656;80;21187;-83
2023/05/19 13:42:00;;;;;;;13.88;6.85;;;;;;;31.23;19.06;100235.66;1790234;80;21174;-79
2023/05/19 13:45:06;;;;;;;13.55;7.30;;;;;;;31.36;18.60;100223.28;1789532;80;21215;-83
2023/05/19 13:48:06;;;;;;;14.95;6.97;;;;;;;31.32;18.75;100227.30;1788783;80;21744;-84
2023/05/19 13:51:14;;;;;;;15.38;7.28;;;;;;;31.34;18.41;100224.19;1787044;79;21261;-79
2023/05/19 13:54:21;;;;;;;13.00;7.22;;;;;;;31.36;19.15;100221.28;1786358;80;21771;-80
2023/05/19 13:57:26;;;;;;;12.13;6.33;;;;;;;31.16;18.36;100226.78;1787061;80;21136;-83
2023/05/19 14:00:31;;;;;;;12.82;6.92;;;;;;;31.13;18.55;100223.17;1786382;80;21155;-83
2023/05/19 14:03:36;;;;;;;14.23;6.45;;;;;;;31.12;18.62;100231.97;1786790;80;21226;-83
2023/05/19 14:06:42;;;;;;;14.25;7.37;;;;;;;31.12;18.61;100227.16;1786030;80;21265;-78
2023/05/19 14:09:49;;;;;;;13.10;6.42;;;;;;;30.98;18.33;100235.64;1785919;80;21732;-79
2023/05/19 14:12:58;;;;;;;9.70;5.30;;;;;;;31.01;17.77;100234.19;1787060;80;21194;-79
2023/05/19 14:16:04;;;;;;;7.80;5.17;;;;;;;30.86;16.95;100239.55;1785786;80;21270;-83
2023/05/19 14:19:10;;;;;;;8.03;5.03;;;;;;;30.86;16.49;100248.59;1785510;80;21187;-83
2023/05/19 14:22:17;;;;;;;17.48;4.97;;;;;;;30.85;16.78;100242.69;1785574;80;21132;-79
2023/05/19 14:25:23;;;;;;;15.85;5.30;;;;;;;30.89;16.87;100238.09;1785582;80;21195;-83